Site:       
  Group:  
  From:      To:        
   
Sensor Name: Furnace      Latitude:-9.57320000 , Longitude:53.92290000
Please click on the Table Headers to view a Graph of the Observations.
TimeMax. Temp. (°C)Min. Temp. (°C)Mean Temp. (°C)Tot. Rain (mm)Mean Wind (kn)Max Gust (kn)Solar Rad. (J\cm2)Humidity (%)Atmos. Press. (mb)Temp. 5cm (°C)Temp. 10cm (°C)Temp. 20cm (°C)Temp. 30cm (°C)Temp. 50cm (°C)Temp. 100cm (°C)Grass Min. (°C)
13/06/2024 23:00:0011.60 11.10 11.40 0.60 8.40 15.90 0.00 -999.00 993.60 -999.00 15.30 15.70 15.60 14.70 13.70 10.50
13/06/2024 22:00:0011.90 11.60 11.80 1.60 7.70 15.80 0.00 -999.00 993.70 -999.00 15.70 15.80 15.60 14.70 13.70 11.00
13/06/2024 21:00:0012.20 11.90 12.00 0.20 9.60 16.70 1.00 -999.00 993.80 -999.00 16.10 15.90 15.70 14.60 13.70 11.40
13/06/2024 20:00:0012.50 12.20 12.40 0.00 9.00 16.60 4.70 -999.00 993.70 -999.00 16.50 16.00 15.70 14.60 13.70 11.90
13/06/2024 19:00:0013.20 12.50 12.90 0.00 8.30 16.80 10.40 -999.00 993.80 -999.00 17.00 16.00 15.60 14.60 13.60 12.50
13/06/2024 18:00:0014.10 13.20 13.70 0.00 10.70 20.60 29.10 -999.00 993.80 -999.00 17.50 15.90 15.50 14.60 13.60 13.70
13/06/2024 17:00:0015.40 14.10 14.70 0.00 12.50 21.20 93.40 -999.00 993.60 -999.00 17.70 15.70 15.40 14.60 13.60 16.70
13/06/2024 16:00:0015.70 14.50 15.10 0.00 13.10 22.30 128.50 -999.00 993.40 -999.00 17.60 15.50 15.20 14.60 13.60 16.60
13/06/2024 15:00:0016.00 14.90 15.40 0.00 12.40 21.60 122.60 -999.00 993.00 -999.00 17.50 15.20 15.00 14.60 13.60 18.00
13/06/2024 14:00:0017.60 15.90 16.70 0.00 12.50 21.00 190.70 -999.00 992.40 -999.00 16.70 14.90 14.90 14.60 13.60 20.50
13/06/2024 13:00:0016.60 15.10 15.90 0.20 6.40 16.60 186.40 -999.00 992.30 -999.00 15.70 14.70 14.80 14.60 13.60 18.00
13/06/2024 12:00:0015.50 14.30 14.90 0.00 7.30 14.80 99.70 -999.00 992.30 -999.00 15.00 14.60 14.80 14.60 13.60 17.50
13/06/2024 11:00:0014.30 13.20 13.80 0.00 11.90 20.60 96.60 -999.00 992.80 -999.00 14.50 14.60 14.90 14.60 13.60 15.30
13/06/2024 10:00:0013.20 12.40 12.90 0.20 12.50 20.80 64.50 -999.00 993.90 -999.00 14.10 14.60 14.90 14.60 13.60 13.70
13/06/2024 09:00:0012.40 11.70 12.10 0.20 12.40 20.70 49.40 -999.00 995.10 -999.00 13.90 14.70 15.00 14.70 13.60 12.60
13/06/2024 08:00:0011.70 11.10 11.40 0.60 14.60 23.10 25.80 -999.00 996.30 -999.00 13.90 14.90 15.10 14.70 13.60 11.20
13/06/2024 07:00:0011.40 11.20 11.30 1.20 13.00 20.50 5.30 -999.00 997.90 -999.00 14.00 15.10 15.30 14.70 13.60 11.20
13/06/2024 06:00:0011.30 11.00 11.10 1.00 10.90 18.20 2.40 -999.00 999.40 -999.00 14.10 15.20 15.40 14.70 13.60 10.90
13/06/2024 05:00:0011.10 10.90 11.00 1.60 11.70 18.20 0.40 -999.00 1000.70 -999.00 14.40 15.40 15.50 14.70 13.60 10.80
13/06/2024 04:00:0011.10 10.90 11.00 1.80 9.50 19.00 0.00 -999.00 1002.20 -999.00 14.70 15.60 15.60 14.70 13.60 10.60
13/06/2024 03:00:0011.10 10.90 11.00 2.40 5.90 13.90 0.00 -999.00 1003.80 -999.00 15.00 15.80 15.80 14.60 13.60 10.50
13/06/2024 02:00:0011.90 11.10 11.50 0.20 11.60 18.90 0.00 -999.00 1005.00 -999.00 15.30 16.00 15.90 14.60 13.60 10.70
13/06/2024 01:00:0013.10 11.80 12.40 0.00 11.30 17.50 0.00 -999.00 1006.30 -999.00 15.70 16.20 16.00 14.60 13.60 11.00
13/06/2024 00:00:0013.00 12.70 12.80 0.00 8.40 14.60 0.00 80.70 1007.60 15.80 16.00 16.40 16.00 14.50 13.60 12.30
12/06/2024 23:00:0012.90 12.60 12.70 0.00 9.70 15.80 0.00 80.10 1009.00 -999.00 -999.00 16.60 16.10 14.40 13.60 -999.00
12/06/2024 22:00:0013.00 12.50 12.80 0.00 8.00 12.60 0.00 76.50 1010.10 -999.00 -999.00 16.70 16.10 14.40 13.60 -999.00